KUL weather

Kuala Lumpur International Airport
Kuala Lumpur, Wilayah Persekutuan Kuala Lumpur, Malaysia

Public forecast

Using degrees Celsius for public forecast. Weather courtesy of forecast.io.

METAR (pilot weather report)

Retrieved 2019/03/20 06:30 UTC (20 minutes ago):

WMKK 200630Z 23007KT 190V280 4000 VCSH HZ FEW017CB SCT018 BKN280 31/24 Q1008 TEMPO 4000 SHRA

TAF (pilot weather forecast)

Retrieved 2019/03/20 06:12 UTC (38 minutes ago):

TAF WMKK 200500Z 2006/2112 22007KT 9999 FEW018 BECMG 2008/2010 VRB03KT 8000 FEW017CB BECMG 2014/2016 5000 HZ FEW030 BECMG 2018/2020 10005KT 7000 FEW017CB BECMG 2100/2101 9000 FEW018